Key West International Airport Key West US
ICAO: KEYW
IATA: EYW
Category: Medium
Scheduled Services: Yes

Elevation: 3 ft
TransAlt. 18000 ft.

Airport Communications:
NAVY KEY WEST:124.45
ASOS:119.65
ATIS:119.675
CLNC DEL:121.9
CTAF:118.2
MIAMI RDO:122.2
GND:121.9
TWR:118.2
UNICOM:122.95

KEYW Zoom In..

If you have problems with the map follow the link
https://www.worldairports.se/pages/airport.php?
ICAO=KEYW

Runways:

(A) RW 09 length 4801 ft width 100 ft
---- / hdg 93

(B) RW 27 length 4801 ft width 100 ft
---- / hdg 273

Location; KEYW
Day. 13 / Time. 12.53 Zulu
* Altimeter: 29.99
* Temperature: 24° c. 75.2°f.
* Wind from: 130° Speed 07 kn.
Dewpoint: 19° c.
Visibility: 9 Statute Miles.
Clouds: Few 2900 ft.
Clouds: Scattered 3800 ft.
Clouds: Broken 7500 ft.
Conditions: Light Rain.

KEYW 131253Z 13007KT 9SM -RA FEW029 SCT038 BKN075 24/19 A2999 RMK AO2 RAB06E17B48 SLP157 P0000 T02390194


Wind From 130°
Speed 07 kn.

 
 
jpsmedia worldairports.se 2019   terms of use